createdAt,value
2018-06-30T00:01:42.904Z,98247.00
2018-06-30T00:04:12.561Z,98242.00
2018-06-30T00:06:41.945Z,98240.00
2018-06-30T00:09:11.224Z,98242.00
2018-06-30T00:11:40.644Z,98235.00
2018-06-30T00:14:10.084Z,98231.00
2018-06-30T00:16:39.984Z,98233.00
2018-06-30T00:19:09.404Z,98231.00
2018-06-30T00:21:38.764Z,98227.00
2018-06-30T00:24:08.080Z,98228.00
2018-06-30T00:26:37.484Z,98221.00
2018-06-30T00:29:06.844Z,98222.00
2018-06-30T00:31:36.584Z,98219.00
2018-06-30T00:34:06.124Z,98222.00
2018-06-30T00:36:35.444Z,98211.00
2018-06-30T00:39:07.724Z,98219.00
2018-06-30T00:41:37.004Z,98212.00
2018-06-30T00:44:06.084Z,98216.00
2018-06-30T00:46:35.784Z,98214.00
2018-06-30T00:49:05.279Z,98215.00
2018-06-30T00:51:35.304Z,98220.00
2018-06-30T00:54:04.904Z,98215.00
2018-06-30T00:56:34.224Z,98219.00
2018-06-30T00:59:03.626Z,98212.00
2018-06-30T01:01:33.024Z,98209.00
2018-06-30T01:04:02.033Z,98210.00
2018-06-30T01:06:31.544Z,98216.00
2018-06-30T01:09:01.185Z,98213.00
2018-06-30T01:11:30.604Z,98214.00
2018-06-30T01:14:00.283Z,98205.00
2018-06-30T01:16:29.744Z,98203.00
2018-06-30T01:18:59.104Z,98202.00
2018-06-30T01:21:28.506Z,98209.00
2018-06-30T01:23:58.004Z,98210.00
2018-06-30T01:26:27.503Z,98208.00
2018-06-30T01:28:56.910Z,98207.00
2018-06-30T01:31:26.244Z,98211.00
2018-06-30T01:33:55.647Z,98216.00
2018-06-30T01:36:24.935Z,98218.00
2018-06-30T01:38:54.304Z,98215.00
2018-06-30T01:41:23.830Z,98209.00
2018-06-30T01:43:53.264Z,98210.00
2018-06-30T01:46:22.664Z,98211.00
2018-06-30T01:48:52.044Z,98202.00
2018-06-30T01:51:21.625Z,98205.00
2018-06-30T01:53:51.244Z,98207.00
2018-06-30T01:56:20.943Z,98205.00
2018-06-30T01:58:50.624Z,98209.00
2018-06-30T02:01:19.931Z,98203.00
2018-06-30T02:03:49.444Z,98201.00
2018-06-30T02:06:18.783Z,98203.00
2018-06-30T02:08:48.224Z,98198.00
2018-06-30T02:11:17.866Z,98201.00
2018-06-30T02:13:47.304Z,98193.00
2018-06-30T02:16:16.864Z,98197.00
2018-06-30T02:18:46.236Z,98196.00
2018-06-30T02:21:15.604Z,98193.00
2018-06-30T02:23:44.984Z,98192.00
2018-06-30T02:26:14.744Z,98194.00
2018-06-30T02:28:44.144Z,98192.00
2018-06-30T02:31:13.444Z,98200.00
2018-06-30T02:33:42.768Z,98196.00
2018-06-30T02:36:12.024Z,98196.00
2018-06-30T02:38:41.376Z,98202.00
2018-06-30T02:41:10.980Z,98196.00
2018-06-30T02:43:40.657Z,98199.00
2018-06-30T02:46:09.876Z,98196.00
2018-06-30T02:48:39.155Z,98194.00
2018-06-30T02:51:08.477Z,98201.00
2018-06-30T02:53:38.016Z,98199.00
2018-06-30T02:56:07.456Z,98201.00
2018-06-30T02:58:36.876Z,98199.00
2018-06-30T03:01:06.376Z,98204.00
2018-06-30T03:03:35.736Z,98199.00
2018-06-30T03:06:05.536Z,98204.00
2018-06-30T03:08:35.059Z,98200.00
2018-06-30T03:11:04.757Z,98190.00
2018-06-30T03:13:34.076Z,98195.00
2018-06-30T03:16:03.896Z,98201.00
2018-06-30T03:18:33.196Z,98196.00
2018-06-30T03:21:02.456Z,98202.00
2018-06-30T03:23:31.796Z,98207.00
2018-06-30T03:26:01.173Z,98217.00
2018-06-30T03:28:30.556Z,98215.00
2018-06-30T03:30:59.898Z,98204.00
2018-06-30T03:33:29.284Z,98201.00
2018-06-30T03:35:58.706Z,98193.00
2018-06-30T03:38:28.065Z,98190.00
2018-06-30T03:40:57.412Z,98194.00
2018-06-30T03:43:26.852Z,98188.00
2018-06-30T03:45:56.284Z,98191.00
2018-06-30T03:48:25.639Z,98191.00
2018-06-30T03:50:55.423Z,98188.00
2018-06-30T03:53:24.884Z,98181.00
2018-06-30T03:55:54.250Z,98188.00
2018-06-30T03:58:23.643Z,98193.00
2018-06-30T04:00:52.843Z,98188.00
2018-06-30T04:03:22.203Z,98193.00
2018-06-30T04:05:51.603Z,98191.00
2018-06-30T04:08:21.023Z,98187.00
2018-06-30T04:10:50.766Z,98183.00
2018-06-30T04:13:20.526Z,98181.00
2018-06-30T04:15:49.866Z,98175.00
2018-06-30T04:18:19.527Z,98175.00
2018-06-30T04:20:48.985Z,98174.00
2018-06-30T04:23:18.526Z,98180.00
2018-06-30T04:25:48.206Z,98176.00
2018-06-30T04:28:17.646Z,98175.00
2018-06-30T04:30:47.445Z,98180.00
2018-06-30T04:33:16.905Z,98179.00
2018-06-30T04:35:46.205Z,98170.00
2018-06-30T04:38:15.746Z,98170.00
2018-06-30T04:40:45.127Z,98173.00
2018-06-30T04:43:14.566Z,98180.00
2018-06-30T04:45:44.143Z,98176.00
2018-06-30T04:48:13.446Z,98172.00
2018-06-30T04:50:42.825Z,98181.00
2018-06-30T04:53:12.426Z,98187.00
2018-06-30T04:55:42.086Z,98183.00
2018-06-30T04:58:11.466Z,98185.00
2018-06-30T05:00:40.885Z,98185.00
2018-06-30T05:03:10.246Z,98185.00
2018-06-30T05:05:39.706Z,98182.00
2018-06-30T05:08:09.086Z,98177.00
2018-06-30T05:10:38.645Z,98173.00
2018-06-30T05:13:08.986Z,98172.00
2018-06-30T05:15:38.386Z,98173.00
2018-06-30T05:18:07.723Z,98171.00
2018-06-30T05:20:37.243Z,98170.00
2018-06-30T05:23:06.683Z,98175.00
2018-06-30T05:25:36.125Z,98170.00
2018-06-30T05:28:05.803Z,98164.00
2018-06-30T05:30:35.945Z,98169.00
2018-06-30T05:33:05.498Z,98171.00
2018-06-30T05:35:34.987Z,98170.00
2018-06-30T05:38:04.468Z,98175.00
2018-06-30T05:40:33.868Z,98178.00
2018-06-30T05:43:03.307Z,98181.00
2018-06-30T05:45:32.428Z,98178.00
2018-06-30T05:48:01.869Z,98189.00
2018-06-30T05:50:31.385Z,98195.00
2018-06-30T05:53:00.765Z,98194.00
2018-06-30T05:55:30.205Z,98202.00
2018-06-30T05:57:59.565Z,98205.00
2018-06-30T06:00:29.165Z,98205.00
2018-06-30T06:02:58.684Z,98201.00
2018-06-30T06:05:27.945Z,98199.00
2018-06-30T06:07:57.585Z,98202.00
2018-06-30T06:10:27.065Z,98199.00
2018-06-30T06:12:56.465Z,98201.00
2018-06-30T06:15:26.119Z,98208.00
2018-06-30T06:17:55.525Z,98197.00
2018-06-30T06:20:24.845Z,98201.00
2018-06-30T06:22:54.365Z,98192.00
2018-06-30T06:25:23.992Z,98191.00
2018-06-30T06:27:53.572Z,98196.00
2018-06-30T06:30:23.165Z,98195.00
2018-06-30T06:32:52.679Z,98201.00
2018-06-30T06:35:22.205Z,98200.00
2018-06-30T06:37:51.725Z,98202.00
2018-06-30T06:40:21.165Z,98209.00
2018-06-30T06:42:50.744Z,98206.00
2018-06-30T06:45:20.447Z,98205.00
2018-06-30T06:47:49.885Z,98209.00
2018-06-30T06:50:19.465Z,98209.00
2018-06-30T06:52:48.905Z,98210.00
2018-06-30T06:55:18.285Z,98204.00
2018-06-30T06:57:47.885Z,98204.00
2018-06-30T07:00:17.414Z,98199.00
2018-06-30T07:02:47.125Z,98200.00
2018-06-30T07:05:16.625Z,98209.00
2018-06-30T07:07:46.075Z,98197.00
2018-06-30T07:10:15.510Z,98203.00
2018-06-30T07:12:44.865Z,98194.00
2018-06-30T07:15:14.386Z,98196.00
2018-06-30T07:17:43.785Z,98196.00
2018-06-30T07:20:14.143Z,98193.00
2018-06-30T07:22:43.545Z,98206.00
2018-06-30T07:25:12.988Z,98206.00
2018-06-30T07:27:41.965Z,98208.00
2018-06-30T07:30:11.908Z,98211.00
2018-06-30T07:32:41.565Z,98212.00
2018-06-30T07:35:10.966Z,98213.00
2018-06-30T07:37:40.345Z,98207.00
2018-06-30T07:40:09.845Z,98220.00
2018-06-30T07:42:39.185Z,98213.00
2018-06-30T07:45:08.828Z,98213.00
2018-06-30T07:47:38.185Z,98218.00
2018-06-30T07:50:07.644Z,98225.00
2018-06-30T07:52:37.048Z,98226.00
2018-06-30T07:55:06.406Z,98222.00
2018-06-30T07:57:35.745Z,98226.00
2018-06-30T08:00:05.746Z,98229.00
2018-06-30T08:02:35.225Z,98226.00
2018-06-30T08:05:05.345Z,98229.00
2018-06-30T08:07:34.866Z,98224.00
2018-06-30T08:10:04.746Z,98228.00
2018-06-30T08:12:34.165Z,98226.00
2018-06-30T08:15:03.625Z,98231.00
2018-06-30T08:17:32.965Z,98236.00
2018-06-30T08:20:02.566Z,98241.00
2018-06-30T08:22:32.025Z,98239.00
2018-06-30T08:25:01.555Z,98243.00
2018-06-30T08:27:31.288Z,98251.00
2018-06-30T08:30:00.966Z,98250.00
2018-06-30T08:32:30.426Z,98257.00
2018-06-30T08:34:59.545Z,98256.00
2018-06-30T08:37:29.046Z,98252.00
2018-06-30T08:39:58.406Z,98258.00
2018-06-30T08:42:27.825Z,98259.00
2018-06-30T08:44:57.605Z,98265.00
2018-06-30T08:47:26.890Z,98258.00
2018-06-30T08:49:56.545Z,98264.00
2018-06-30T08:52:26.005Z,98267.00
2018-06-30T08:54:55.527Z,98266.00
2018-06-30T08:57:25.145Z,98267.00
2018-06-30T08:59:54.826Z,98270.00
2018-06-30T09:02:24.305Z,98269.00
2018-06-30T09:04:54.225Z,98273.00
2018-06-30T09:07:23.425Z,98279.00
2018-06-30T09:09:53.185Z,98271.00
2018-06-30T09:12:22.746Z,98278.00
2018-06-30T09:14:52.265Z,98285.00
2018-06-30T09:17:21.726Z,98274.00
2018-06-30T09:19:51.109Z,98273.00
2018-06-30T09:22:20.585Z,98281.00
2018-06-30T09:24:50.013Z,98289.00
2018-06-30T09:27:19.452Z,98285.00
2018-06-30T09:29:48.935Z,98293.00
2018-06-30T09:32:18.283Z,98287.00
2018-06-30T09:34:47.788Z,98291.00
2018-06-30T09:37:17.546Z,98288.00
2018-06-30T09:39:47.388Z,98290.00
2018-06-30T09:42:17.109Z,98302.00
2018-06-30T09:44:46.524Z,98303.00
2018-06-30T09:47:15.992Z,98302.00
2018-06-30T09:49:45.200Z,98305.00
2018-06-30T09:52:14.566Z,98307.00
2018-06-30T09:54:43.948Z,98306.00
2018-06-30T09:57:13.336Z,98291.00
2018-06-30T09:59:42.732Z,98302.00
2018-06-30T10:02:12.112Z,98302.00
2018-06-30T10:04:41.354Z,98305.00
2018-06-30T10:07:11.094Z,98299.00
2018-06-30T10:09:40.508Z,98310.00
2018-06-30T10:12:09.875Z,98295.00
2018-06-30T10:14:38.977Z,98310.00
2018-06-30T10:17:08.364Z,98306.00
2018-06-30T10:19:37.887Z,98299.00
2018-06-30T10:22:07.626Z,98307.00
2018-06-30T10:24:36.839Z,98309.00
2018-06-30T10:27:05.959Z,98302.00
2018-06-30T10:29:35.439Z,98301.00
2018-06-30T10:32:04.911Z,98299.00
2018-06-30T10:34:34.278Z,98296.00
2018-06-30T10:37:03.699Z,98301.00
2018-06-30T10:39:33.359Z,98296.00
2018-06-30T10:42:02.719Z,98298.00
2018-06-30T10:44:32.398Z,98303.00
2018-06-30T10:47:01.940Z,98293.00
2018-06-30T10:49:31.339Z,98289.00
2018-06-30T10:52:00.950Z,98294.00
2018-06-30T10:54:30.619Z,98293.00
2018-06-30T10:57:00.719Z,98299.00
2018-06-30T10:59:30.391Z,98298.00
2018-06-30T11:01:59.939Z,98290.00
2018-06-30T11:04:29.228Z,98293.00
2018-06-30T11:06:58.601Z,98283.00
2018-06-30T11:09:27.860Z,98289.00
2018-06-30T11:11:57.162Z,98286.00
2018-06-30T11:14:26.559Z,98308.00
2018-06-30T11:16:56.120Z,98305.00
2018-06-30T11:19:25.599Z,98286.00
2018-06-30T11:21:55.146Z,98292.00
2018-06-30T11:24:24.932Z,98291.00
2018-06-30T11:26:54.679Z,98297.00
2018-06-30T11:29:25.134Z,98291.00
2018-06-30T11:31:54.539Z,98291.00
2018-06-30T11:34:23.979Z,98289.00
2018-06-30T11:36:53.599Z,98283.00
2018-06-30T11:39:22.998Z,98289.00
2018-06-30T11:41:52.439Z,98291.00
2018-06-30T11:44:22.298Z,98291.00
2018-06-30T11:46:51.519Z,98300.00
2018-06-30T11:49:20.999Z,98291.00
2018-06-30T11:51:50.299Z,98291.00
2018-06-30T11:54:19.762Z,98294.00
2018-06-30T11:56:49.331Z,98303.00
2018-06-30T11:59:18.811Z,98293.00
2018-06-30T12:01:48.212Z,98294.00
2018-06-30T12:04:17.671Z,98292.00
2018-06-30T12:06:47.012Z,98296.00
2018-06-30T12:09:16.002Z,98295.00
2018-06-30T12:11:45.457Z,98291.00
2018-06-30T12:14:14.816Z,98301.00
2018-06-30T12:16:44.146Z,98291.00
2018-06-30T12:19:13.320Z,98308.00
2018-06-30T12:21:42.567Z,98293.00
2018-06-30T12:24:12.010Z,98288.00
2018-06-30T12:26:41.310Z,98292.00
2018-06-30T12:29:11.099Z,98297.00
2018-06-30T12:31:40.639Z,98289.00
2018-06-30T12:34:09.979Z,98290.00
2018-06-30T12:36:39.599Z,98290.00
2018-06-30T12:39:10.274Z,98290.00
2018-06-30T12:41:40.248Z,98284.00
2018-06-30T12:44:09.548Z,98287.00
2018-06-30T12:46:38.767Z,98282.00
2018-06-30T12:49:07.910Z,98290.00
2018-06-30T12:51:37.291Z,98292.00
2018-06-30T12:54:06.731Z,98290.00
2018-06-30T12:56:36.516Z,98285.00
2018-06-30T12:59:06.088Z,98285.00
2018-06-30T13:01:35.469Z,98286.00
2018-06-30T13:04:04.889Z,98288.00
2018-06-30T13:06:34.020Z,98279.00
2018-06-30T13:09:03.708Z,98281.00
2018-06-30T13:11:33.099Z,98288.00
2018-06-30T13:14:02.280Z,98279.00
2018-06-30T13:16:32.021Z,98287.00
2018-06-30T13:19:01.459Z,98294.00
2018-06-30T13:21:30.760Z,98272.00
2018-06-30T13:24:00.026Z,98282.00
2018-06-30T13:26:29.255Z,98274.00
2018-06-30T13:28:58.666Z,98271.00
2018-06-30T13:31:28.149Z,98273.00
2018-06-30T13:33:57.569Z,98273.00
2018-06-30T13:36:26.779Z,98271.00
2018-06-30T13:38:56.629Z,98282.00
2018-06-30T13:41:25.721Z,98272.00
2018-06-30T13:43:54.973Z,98274.00
2018-06-30T13:46:24.581Z,98270.00
2018-06-30T13:48:53.798Z,98259.00
2018-06-30T13:51:23.338Z,98274.00
2018-06-30T13:53:52.858Z,98288.00
2018-06-30T13:56:22.639Z,98267.00
2018-06-30T13:58:52.598Z,98272.00
2018-06-30T14:01:21.893Z,98272.00
2018-06-30T14:03:51.248Z,98280.00
2018-06-30T14:06:20.766Z,98273.00
2018-06-30T14:08:49.849Z,98271.00
2018-06-30T14:11:19.192Z,98271.00
2018-06-30T14:13:48.612Z,98274.00
2018-06-30T14:16:18.008Z,98267.00
2018-06-30T14:18:47.407Z,98269.00
2018-06-30T14:21:16.747Z,98268.00
2018-06-30T14:23:46.121Z,98273.00
2018-06-30T14:26:15.527Z,98259.00
2018-06-30T14:28:44.967Z,98270.00
2018-06-30T14:31:14.508Z,98274.00
2018-06-30T14:33:44.123Z,98268.00
2018-06-30T14:36:13.464Z,98270.00
2018-06-30T14:38:42.986Z,98278.00
2018-06-30T14:41:12.426Z,98273.00
2018-06-30T14:43:42.227Z,98269.00
2018-06-30T14:46:11.765Z,98271.00
2018-06-30T14:48:41.524Z,98279.00
2018-06-30T14:51:10.864Z,98278.00
2018-06-30T14:53:40.224Z,98283.00
2018-06-30T14:56:09.904Z,98278.00
2018-06-30T14:58:39.327Z,98283.00
2018-06-30T15:01:08.744Z,98284.00
2018-06-30T15:03:38.084Z,98281.00
2018-06-30T15:06:07.464Z,98280.00
2018-06-30T15:08:36.684Z,98274.00
2018-06-30T15:11:06.204Z,98289.00
2018-06-30T15:13:35.651Z,98285.00
2018-06-30T15:16:05.924Z,98290.00
2018-06-30T15:18:35.383Z,98291.00
2018-06-30T15:21:04.744Z,98298.00
2018-06-30T15:23:34.224Z,98296.00
2018-06-30T15:26:03.678Z,98305.00
2018-06-30T15:28:47.884Z,98287.00
2018-06-30T15:31:17.265Z,98298.00
2018-06-30T15:33:46.464Z,98305.00
2018-06-30T15:36:16.645Z,98299.00
2018-06-30T15:38:46.165Z,98309.00
2018-06-30T15:41:16.764Z,98313.00
2018-06-30T15:43:46.264Z,98311.00
2018-06-30T15:46:16.119Z,98315.00
2018-06-30T15:48:45.511Z,98322.00
2018-06-30T15:51:15.339Z,98315.00
2018-06-30T15:53:44.891Z,98311.00
2018-06-30T15:56:14.227Z,98316.00
2018-06-30T15:58:43.683Z,98318.00
2018-06-30T16:01:13.154Z,98320.00
2018-06-30T16:03:42.536Z,98328.00
2018-06-30T16:06:12.000Z,98322.00
2018-06-30T16:08:41.813Z,98330.00
2018-06-30T16:11:11.296Z,98334.00
2018-06-30T16:13:40.578Z,98326.00
2018-06-30T16:16:09.971Z,98335.00
2018-06-30T16:18:39.357Z,98333.00
2018-06-30T16:21:08.685Z,98333.00
2018-06-30T16:23:38.249Z,98342.00
2018-06-30T16:26:07.664Z,98350.00
2018-06-30T16:28:37.133Z,98344.00
2018-06-30T16:31:06.775Z,98347.00
2018-06-30T16:33:36.491Z,98343.00
2018-06-30T16:36:06.095Z,98350.00
2018-06-30T16:38:35.675Z,98352.00
2018-06-30T16:41:05.155Z,98348.00
2018-06-30T16:43:34.601Z,98350.00
2018-06-30T16:46:04.218Z,98352.00
2018-06-30T16:48:33.814Z,98359.00
2018-06-30T16:51:03.515Z,98356.00
2018-06-30T16:53:32.974Z,98358.00
2018-06-30T16:56:02.755Z,98364.00
2018-06-30T16:58:32.497Z,98357.00
2018-06-30T17:01:01.860Z,98361.00
2018-06-30T17:03:31.377Z,98361.00
2018-06-30T17:06:00.817Z,98366.00
2018-06-30T17:08:30.343Z,98372.00
2018-06-30T17:11:00.218Z,98374.00
2018-06-30T17:13:29.597Z,98370.00
2018-06-30T17:15:58.681Z,98375.00
2018-06-30T17:18:27.817Z,98374.00
2018-06-30T17:20:57.177Z,98383.00
2018-06-30T17:23:26.797Z,98377.00
2018-06-30T17:25:56.316Z,98380.00
2018-06-30T17:28:26.058Z,98378.00
2018-06-30T17:30:55.557Z,98384.00
2018-06-30T17:33:24.877Z,98378.00
2018-06-30T17:35:54.437Z,98386.00
2018-06-30T17:38:23.997Z,98385.00
2018-06-30T17:40:53.497Z,98383.00
2018-06-30T17:43:22.937Z,98385.00
2018-06-30T17:45:52.296Z,98373.00
2018-06-30T17:48:21.776Z,98386.00
2018-06-30T17:50:51.250Z,98380.00
2018-06-30T17:53:20.822Z,98389.00
2018-06-30T17:55:50.510Z,98388.00
2018-06-30T17:58:19.923Z,98385.00
2018-06-30T18:00:49.467Z,98392.00
2018-06-30T18:03:18.785Z,98389.00
2018-06-30T18:05:48.166Z,98398.00
2018-06-30T18:08:17.545Z,98386.00
2018-06-30T18:10:47.045Z,98392.00
2018-06-30T18:13:16.565Z,98396.00
2018-06-30T18:15:45.981Z,98399.00
2018-06-30T18:18:15.716Z,98399.00
2018-06-30T18:20:45.105Z,98396.00
2018-06-30T18:23:14.465Z,98402.00
2018-06-30T18:25:44.125Z,98402.00
2018-06-30T18:28:13.728Z,98398.00
2018-06-30T18:30:43.264Z,98404.00
2018-06-30T18:33:12.624Z,98407.00
2018-06-30T18:35:42.085Z,98395.00
2018-06-30T18:38:11.525Z,98406.00
2018-06-30T18:40:41.145Z,98403.00
2018-06-30T18:43:10.564Z,98406.00
2018-06-30T18:45:39.901Z,98406.00
2018-06-30T18:48:09.320Z,98413.00
2018-06-30T18:50:38.659Z,98416.00
2018-06-30T18:53:08.139Z,98421.00
2018-06-30T18:55:37.180Z,98413.00
2018-06-30T18:58:06.986Z,98421.00
2018-06-30T19:00:36.426Z,98426.00
2018-06-30T19:03:06.305Z,98431.00
2018-06-30T19:05:35.605Z,98435.00
2018-06-30T19:08:05.322Z,98436.00
2018-06-30T19:10:34.699Z,98441.00
2018-06-30T19:13:04.179Z,98441.00
2018-06-30T19:15:33.319Z,98447.00
2018-06-30T19:18:02.659Z,98444.00
2018-06-30T19:20:33.117Z,98449.00
2018-06-30T19:23:02.758Z,98453.00
2018-06-30T19:25:32.080Z,98465.00
2018-06-30T19:28:01.381Z,98461.00
2018-06-30T19:30:30.838Z,98459.00
2018-06-30T19:33:00.234Z,98464.00
2018-06-30T19:35:29.731Z,98466.00
2018-06-30T19:37:59.004Z,98475.00
2018-06-30T19:40:28.766Z,98476.00
2018-06-30T19:42:57.784Z,98475.00
2018-06-30T19:45:27.224Z,98475.00
2018-06-30T19:47:56.503Z,98484.00
2018-06-30T19:50:25.870Z,98482.00
2018-06-30T19:52:55.359Z,98487.00
2018-06-30T19:55:24.763Z,98491.00
2018-06-30T19:57:54.264Z,98491.00
2018-06-30T20:00:23.484Z,98496.00
2018-06-30T20:02:52.499Z,98510.00
2018-06-30T20:05:21.939Z,98505.00
2018-06-30T20:07:53.005Z,98508.00
2018-06-30T20:10:23.758Z,98510.00
2018-06-30T20:12:53.332Z,98518.00
2018-06-30T20:15:23.031Z,98524.00
2018-06-30T20:17:52.433Z,98518.00
2018-06-30T20:20:21.538Z,98525.00
2018-06-30T20:22:50.896Z,98528.00
2018-06-30T20:25:20.190Z,98537.00
2018-06-30T20:27:49.651Z,98529.00
2018-06-30T20:30:19.452Z,98538.00
2018-06-30T20:32:48.732Z,98548.00
2018-06-30T20:35:18.113Z,98551.00
2018-06-30T20:37:47.472Z,98546.00
2018-06-30T20:40:16.990Z,98555.00
2018-06-30T20:42:46.311Z,98558.00
2018-06-30T20:45:15.776Z,98558.00
2018-06-30T20:47:45.165Z,98568.00
2018-06-30T20:50:14.545Z,98569.00
2018-06-30T20:52:43.931Z,98563.00
2018-06-30T20:55:13.211Z,98565.00
2018-06-30T20:57:42.510Z,98566.00
2018-06-30T21:00:12.191Z,98566.00
2018-06-30T21:02:41.571Z,98567.00
2018-06-30T21:05:10.851Z,98569.00
2018-06-30T21:07:40.271Z,98573.00
2018-06-30T21:10:09.572Z,98580.00
2018-06-30T21:12:38.991Z,98577.00
2018-06-30T21:15:08.431Z,98576.00
2018-06-30T21:17:37.829Z,98585.00
2018-06-30T21:20:07.391Z,98584.00
2018-06-30T21:22:36.792Z,98592.00
2018-06-30T21:25:06.153Z,98595.00
2018-06-30T21:27:35.571Z,98592.00
2018-06-30T21:30:05.632Z,98601.00
2018-06-30T21:32:34.965Z,98603.00
2018-06-30T21:35:04.551Z,98608.00
2018-06-30T21:37:33.891Z,98613.00
2018-06-30T21:40:03.611Z,98613.00
2018-06-30T21:42:32.951Z,98616.00
2018-06-30T21:45:02.671Z,98622.00
2018-06-30T21:47:32.031Z,98621.00
2018-06-30T21:50:01.393Z,98617.00
2018-06-30T21:52:30.831Z,98627.00
2018-06-30T21:55:00.372Z,98620.00
2018-06-30T21:57:29.751Z,98627.00
2018-06-30T21:59:59.151Z,98620.00
2018-06-30T22:02:28.432Z,98632.00
2018-06-30T22:04:57.691Z,98625.00
2018-06-30T22:07:27.322Z,98634.00
2018-06-30T22:09:56.632Z,98638.00
2018-06-30T22:12:25.971Z,98636.00
2018-06-30T22:14:55.691Z,98637.00
2018-06-30T22:17:24.971Z,98645.00
2018-06-30T22:19:54.411Z,98637.00
2018-06-30T22:22:23.711Z,98634.00
2018-06-30T22:24:53.451Z,98637.00
2018-06-30T22:27:22.891Z,98637.00
2018-06-30T22:29:52.251Z,98644.00
2018-06-30T22:32:21.651Z,98640.00
2018-06-30T22:34:50.631Z,98648.00
2018-06-30T22:37:20.331Z,98641.00
2018-06-30T22:40:05.893Z,98638.00
2018-06-30T22:42:35.311Z,98644.00
2018-06-30T22:45:04.771Z,98642.00
2018-06-30T22:47:34.091Z,98653.00
2018-06-30T22:50:03.791Z,98649.00
2018-06-30T22:52:33.410Z,98649.00
2018-06-30T22:55:02.836Z,98652.00
2018-06-30T22:57:32.451Z,98655.00
2018-06-30T23:00:02.191Z,98652.00
2018-06-30T23:02:31.651Z,98644.00
2018-06-30T23:05:01.330Z,98650.00
2018-06-30T23:07:30.451Z,98653.00
2018-06-30T23:09:59.731Z,98657.00
2018-06-30T23:12:29.332Z,98657.00
2018-06-30T23:14:58.813Z,98654.00
2018-06-30T23:17:28.371Z,98655.00
2018-06-30T23:19:57.691Z,98662.00
2018-06-30T23:23:06.050Z,98670.00
2018-06-30T23:25:35.991Z,98662.00
2018-06-30T23:28:05.953Z,98665.00
2018-06-30T23:30:36.090Z,98661.00
2018-06-30T23:33:05.431Z,98670.00
2018-06-30T23:35:34.771Z,98666.00
2018-06-30T23:38:04.551Z,98659.00
2018-06-30T23:40:33.932Z,98666.00
2018-06-30T23:43:03.290Z,98672.00
2018-06-30T23:45:32.611Z,98673.00
2018-06-30T23:48:01.973Z,98677.00
2018-06-30T23:50:31.370Z,98669.00
2018-06-30T23:53:00.631Z,98662.00
2018-06-30T23:55:30.031Z,98667.00
2018-06-30T23:57:59.333Z,98661.00
